This is the latest recevied weather packets stored in our database for station/object DM1RG-6. If no packets are shown the sender has not sent any weather packets the latest 10 day(s).
| Time | Temp. | Humidity | Pressure | Rain* | Wind** | Luminosity | Snow |
|---|---|---|---|---|---|---|---|
| 1777871884 | 14.44° C | 84% | 1011.7 hPa | 0 mm | - | - | - |
| 1777871524 | 14.44° C | 83% | 1011.6 hPa | 0 mm | - | - | - |
| 1777871164 | 14.44° C | 82% | 1011.7 hPa | 0 mm | - | - | - |
| 1777870804 | 14.44° C | 80% | 1011.6 hPa | 0 mm | - | - | - |
| 1777870444 | 14.44° C | 81% | 1011.5 hPa | 0 mm | - | - | - |
| 1777870083 | 15° C | 79% | 1011.4 hPa | 0 mm | - | - | - |
| 1777869724 | 15° C | 78% | 1011.5 hPa | 0 mm | - | - | - |
| 1777869363 | 15° C | 77% | 1011.5 hPa | 0 mm | - | - | - |
| 1777869004 | 15° C | 76% | 1011.2 hPa | 0 mm | - | - | - |
| 1777868643 | 15° C | 74% | 1011.3 hPa | 0 mm | - | - | - |
| 1777868284 | 15° C | 75% | 1011.4 hPa | 0 mm | - | - | - |
| 1777867924 | 15° C | 75% | 1011.4 hPa | 0 mm | - | - | - |
| 1777867563 | 15° C | 76% | 1011.3 hPa | 0 mm | - | - | - |
| 1777867203 | 15° C | 77% | 1011 hPa | 0 mm | - | - | - |
| 1777866844 | 15° C | 77% | 1011.2 hPa | 0 mm | - | - | - |
| 1777865764 | 15° C | 75% | 1011.2 hPa | 0 mm | - | - | - |
| 1777845964 | 18.89° C | 56% | 1009.7 hPa | 0 mm | - | - | - |
| 1777844883 | 17.22° C | 63% | 1010.4 hPa | 0 mm | - | - | - |
| 1777844163 | 17.78° C | 62% | 1010.1 hPa | 0 mm | - | - | - |
| 1777843083 | 17.22° C | 62% | 1010 hPa | 0 mm | - | - | - |
| 1777842723 | 17.78° C | 63% | 1009.8 hPa | 0 mm | - | - | - |
| 1777842363 | 17.78° C | 63% | 1009.7 hPa | 0 mm | - | - | - |
| 1777841284 | 18.33° C | 63% | 1009.7 hPa | 0 mm | - | - | - |
| 1777839484 | 19.44° C | 57% | 1009.8 hPa | 0 mm | - | - | - |
| 1777838764 | 20° C | 56% | 1009.9 hPa | 0 mm | - | - | - |
* Rain latest hour (hover to see other rain measurements)
** Current wind speed in m/s (hover to see current wind gust speed)